createdAt,value
2018-12-01T00:00:31.440Z,90.50
2018-12-01T00:03:00.373Z,90.90
2018-12-01T00:05:29.344Z,91.80
2018-12-01T00:07:58.566Z,92.00
2018-12-01T00:10:27.534Z,92.00
2018-12-01T00:12:57.198Z,92.20
2018-12-01T00:15:30.414Z,91.80
2018-12-01T00:17:59.486Z,91.80
2018-12-01T00:20:29.858Z,92.40
2018-12-01T00:22:58.882Z,92.30
2018-12-01T00:25:27.827Z,92.30
2018-12-01T00:27:56.823Z,92.60
2018-12-01T00:30:26.123Z,93.20
2018-12-01T00:32:56.890Z,94.00
2018-12-01T00:35:25.991Z,94.70
2018-12-01T00:37:55.054Z,94.80
2018-12-01T00:40:24.056Z,94.40
2018-12-01T00:42:53.145Z,94.50
2018-12-01T00:45:23.441Z,94.90
2018-12-01T00:47:53.250Z,94.40
2018-12-01T00:50:23.809Z,94.70
2018-12-01T00:52:54.081Z,94.10
2018-12-01T00:55:23.371Z,94.90
2018-12-01T00:57:52.366Z,94.90
2018-12-01T01:00:25.756Z,94.60
2018-12-01T01:02:56.391Z,94.70
2018-12-01T01:05:28.046Z,94.80
2018-12-01T01:07:57.862Z,94.20
2018-12-01T01:10:28.881Z,93.80
2018-12-01T01:12:58.414Z,95.10
2018-12-01T01:15:33.104Z,95.20
2018-12-01T01:18:18.953Z,94.70
2018-12-01T01:21:08.104Z,94.90
2018-12-01T01:23:55.193Z,95.40
2018-12-01T01:26:28.970Z,95.60
2018-12-01T01:28:57.890Z,95.50
2018-12-01T01:31:27.444Z,96.00
2018-12-01T01:33:56.432Z,96.10
2018-12-01T01:36:25.348Z,95.60
2018-12-01T01:38:54.293Z,96.00
2018-12-01T01:41:23.257Z,95.20
2018-12-01T01:43:52.355Z,95.30
2018-12-01T01:46:21.280Z,95.50
2018-12-01T01:48:50.298Z,95.70
2018-12-01T01:51:19.254Z,96.60
2018-12-01T01:53:48.426Z,96.80
2018-12-01T01:56:17.413Z,96.50
2018-12-01T01:58:46.415Z,96.70
2018-12-01T02:01:15.354Z,96.30
2018-12-01T02:03:44.381Z,96.50
2018-12-01T02:06:14.213Z,96.60
2018-12-01T02:08:43.174Z,96.60
2018-12-01T02:11:12.969Z,96.20
2018-12-01T02:13:41.953Z,96.70
2018-12-01T02:16:10.913Z,96.10
2018-12-01T02:18:39.939Z,97.60
2018-12-01T02:21:09.042Z,98.00
2018-12-01T02:23:38.013Z,97.10
2018-12-01T02:26:07.033Z,97.50
2018-12-01T02:28:35.978Z,98.20
2018-12-01T02:31:04.950Z,97.80
2018-12-01T02:33:34.646Z,97.90
2018-12-01T02:36:03.589Z,97.50
2018-12-01T02:38:32.579Z,97.30
2018-12-01T02:41:01.584Z,97.20
2018-12-01T02:43:30.583Z,97.20
2018-12-01T02:46:10.680Z,97.40
2018-12-01T02:48:39.721Z,97.40
2018-12-01T02:51:08.710Z,96.80
2018-12-01T02:53:38.077Z,97.20
2018-12-01T02:56:07.075Z,97.20
2018-12-01T02:58:36.085Z,97.80
2018-12-01T03:01:05.719Z,97.60
2018-12-01T03:03:34.705Z,97.80
2018-12-01T03:06:04.283Z,98.30
2018-12-01T03:08:33.412Z,97.80
2018-12-01T03:11:02.370Z,96.80
2018-12-01T03:13:31.407Z,98.10
2018-12-01T03:16:00.709Z,97.60
2018-12-01T03:18:29.685Z,97.80
2018-12-01T03:20:58.677Z,97.70
2018-12-01T03:23:27.682Z,97.70
2018-12-01T03:25:56.778Z,98.10
2018-12-01T03:28:25.749Z,97.90
2018-12-01T03:30:54.760Z,97.80
2018-12-01T03:33:24.419Z,98.90
2018-12-01T03:35:53.362Z,97.80
2018-12-01T03:38:22.400Z,97.90
2018-12-01T03:40:51.667Z,97.90
2018-12-01T03:43:21.272Z,99.70
2018-12-01T03:45:50.268Z,99.30
2018-12-01T03:48:19.402Z,99.90
2018-12-01T03:50:48.314Z,99.90
2018-12-01T03:53:17.315Z,99.90
2018-12-01T03:55:46.236Z,99.90
2018-12-01T03:58:15.211Z,99.90
2018-12-01T04:00:44.233Z,99.90
2018-12-01T04:03:13.726Z,99.90
2018-12-01T04:05:42.775Z,99.90
2018-12-01T04:08:12.444Z,99.90
2018-12-01T04:10:41.453Z,99.90
2018-12-01T04:13:10.406Z,99.90
2018-12-01T04:15:40.186Z,99.90
2018-12-01T04:18:09.166Z,99.90
2018-12-01T04:20:38.376Z,99.90
2018-12-01T04:23:07.609Z,99.90
2018-12-01T04:25:36.541Z,99.90
2018-12-01T04:28:05.711Z,99.90
2018-12-01T04:30:34.865Z,99.90
2018-12-01T04:33:03.889Z,99.90
2018-12-01T04:35:33.348Z,99.90
2018-12-01T04:38:02.832Z,99.90
2018-12-01T04:40:31.824Z,99.90
2018-12-01T04:43:01.264Z,99.90
2018-12-01T04:45:30.789Z,99.90
2018-12-01T04:47:59.741Z,99.90
2018-12-01T04:50:28.687Z,99.90
2018-12-01T04:52:58.060Z,99.90
2018-12-01T04:55:27.618Z,99.90
2018-12-01T04:57:56.581Z,99.90
2018-12-01T05:00:25.625Z,99.90
2018-12-01T05:02:54.531Z,99.90
2018-12-01T05:05:23.473Z,99.90
2018-12-01T05:07:52.497Z,99.90
2018-12-01T05:10:22.575Z,99.90
2018-12-01T05:12:51.537Z,99.90
2018-12-01T05:15:20.695Z,99.90
2018-12-01T05:17:49.628Z,99.80
2018-12-01T05:20:19.555Z,99.90
2018-12-01T05:22:49.857Z,99.90
2018-12-01T05:25:18.874Z,99.90
2018-12-01T05:27:47.855Z,99.90
2018-12-01T05:30:16.859Z,99.90
2018-12-01T05:32:45.789Z,99.80
2018-12-01T05:35:16.106Z,99.90
2018-12-01T05:37:46.629Z,99.90
2018-12-01T05:40:17.074Z,98.70
2018-12-01T05:42:46.206Z,96.20
2018-12-01T05:45:18.238Z,95.60
2018-12-01T05:47:47.301Z,93.40
2018-12-01T05:50:22.372Z,92.10
2018-12-01T05:52:52.386Z,91.50
2018-12-01T05:55:21.451Z,91.10
2018-12-01T05:57:50.813Z,91.00
2018-12-01T06:00:19.980Z,91.10
2018-12-01T06:02:49.007Z,90.30
2018-12-01T06:05:17.960Z,89.70
2018-12-01T06:07:47.111Z,89.40
2018-12-01T06:10:18.118Z,90.20
2018-12-01T06:12:47.541Z,90.50
2018-12-01T06:15:17.187Z,88.90
2018-12-01T06:17:46.164Z,87.30
2018-12-01T06:20:22.735Z,84.60
2018-12-01T06:22:51.692Z,86.20
2018-12-01T06:25:21.881Z,86.60
2018-12-01T06:27:51.184Z,83.70
2018-12-01T06:30:20.655Z,85.70
2018-12-01T06:32:50.562Z,85.60
2018-12-01T06:35:19.553Z,86.10
2018-12-01T06:37:49.050Z,86.50
2018-12-01T06:40:19.156Z,85.50
2018-12-01T06:42:48.760Z,84.00
2018-12-01T06:45:18.639Z,83.00
2018-12-01T06:47:47.631Z,82.80
2018-12-01T06:50:17.637Z,83.40
2018-12-01T06:52:46.596Z,82.90
2018-12-01T06:55:15.612Z,80.60
2018-12-01T06:57:45.785Z,81.30
2018-12-01T07:00:22.603Z,82.70
2018-12-01T07:02:52.297Z,81.70
2018-12-01T07:05:21.758Z,84.20
2018-12-01T07:07:50.714Z,82.90
2018-12-01T07:10:21.346Z,82.20
2018-12-01T07:12:59.508Z,81.40
2018-12-01T07:15:32.366Z,84.60
2018-12-01T07:18:01.353Z,83.80
2018-12-01T07:20:30.257Z,85.60
2018-12-01T07:22:59.170Z,84.10
2018-12-01T07:25:28.183Z,83.50
2018-12-01T07:27:57.309Z,82.70
2018-12-01T07:30:26.246Z,82.60
2018-12-01T07:32:55.190Z,81.60
2018-12-01T07:35:24.182Z,83.70
2018-12-01T07:37:53.572Z,81.40
2018-12-01T07:40:22.737Z,85.20
2018-12-01T07:42:51.647Z,84.00
2018-12-01T07:45:20.539Z,82.00
2018-12-01T07:47:49.501Z,82.30
2018-12-01T07:50:19.083Z,81.70
2018-12-01T07:52:52.995Z,80.60
2018-12-01T07:55:22.086Z,82.10
2018-12-01T07:57:51.153Z,80.50
2018-12-01T08:00:20.242Z,81.20
2018-12-01T08:02:50.221Z,83.00
2018-12-01T08:05:19.258Z,81.60
2018-12-01T08:07:48.381Z,81.20
2018-12-01T08:10:17.520Z,81.30
2018-12-01T08:12:46.528Z,81.40
2018-12-01T08:15:17.165Z,80.70
2018-12-01T08:17:46.625Z,79.80
2018-12-01T08:20:16.459Z,77.80
2018-12-01T08:22:45.768Z,73.80
2018-12-01T08:25:17.730Z,73.90
2018-12-01T08:27:48.124Z,73.30
2018-12-01T08:30:18.377Z,73.10
2018-12-01T08:32:47.364Z,72.50
2018-12-01T08:35:16.376Z,73.20
2018-12-01T08:37:45.469Z,71.70
2018-12-01T08:40:15.752Z,76.00
2018-12-01T08:42:44.876Z,76.50
2018-12-01T08:45:13.894Z,78.10
2018-12-01T08:47:43.103Z,79.20
2018-12-01T08:50:17.076Z,78.70
2018-12-01T08:52:46.067Z,78.90
2018-12-01T08:55:18.131Z,79.90
2018-12-01T08:57:47.247Z,80.50
2018-12-01T09:00:18.397Z,84.40
2018-12-01T09:02:49.075Z,85.90
2018-12-01T09:05:18.041Z,86.80
2018-12-01T09:07:47.127Z,88.40
2018-12-01T09:10:16.144Z,88.80
2018-12-01T09:12:45.351Z,91.10
2018-12-01T09:15:14.384Z,91.40
2018-12-01T09:17:43.319Z,90.40
2018-12-01T09:20:13.477Z,92.80
2018-12-01T09:22:44.499Z,91.90
2018-12-01T09:25:16.102Z,91.80
2018-12-01T09:27:45.269Z,94.70
2018-12-01T09:30:20.250Z,93.60
2018-12-01T09:32:49.964Z,93.20
2018-12-01T09:35:21.221Z,93.60
2018-12-01T09:37:52.029Z,94.40
2018-12-01T09:40:22.574Z,94.90
2018-12-01T09:42:52.354Z,94.00
2018-12-01T09:45:22.941Z,93.10
2018-12-01T09:47:52.952Z,92.80
2018-12-01T09:50:22.045Z,92.40
2018-12-01T09:52:52.537Z,94.90
2018-12-01T09:55:28.405Z,95.50
2018-12-01T09:57:58.154Z,96.60
2018-12-01T10:00:33.582Z,96.80
2018-12-01T10:03:05.082Z,96.30
2018-12-01T10:05:34.305Z,97.10
2018-12-01T10:08:03.371Z,98.40
2018-12-01T10:10:33.414Z,99.00
2018-12-01T10:13:02.432Z,97.10
2018-12-01T10:15:35.223Z,96.90
2018-12-01T10:18:06.033Z,99.90
2018-12-01T10:20:35.809Z,99.90
2018-12-01T10:23:09.576Z,99.90
2018-12-01T10:25:38.690Z,99.90
2018-12-01T10:28:09.292Z,99.90
2018-12-01T10:30:42.986Z,99.90
2018-12-01T10:33:13.798Z,99.90
2018-12-01T10:35:42.749Z,99.90
2018-12-01T10:38:15.351Z,99.90
2018-12-01T10:40:44.960Z,99.90
2018-12-01T10:43:17.929Z,99.90
2018-12-01T10:45:48.623Z,99.90
2018-12-01T10:48:17.596Z,99.90
2018-12-01T10:50:46.534Z,99.90
2018-12-01T10:53:15.521Z,99.90
2018-12-01T10:55:44.504Z,99.90
2018-12-01T10:58:19.149Z,99.90
2018-12-01T11:00:54.534Z,99.90
2018-12-01T11:03:32.226Z,99.90
2018-12-01T11:06:02.431Z,99.90
2018-12-01T11:08:31.484Z,99.90
2018-12-01T11:11:00.469Z,99.90
2018-12-01T11:13:29.432Z,99.90
2018-12-01T11:15:58.879Z,99.90
2018-12-01T11:18:28.369Z,99.90
2018-12-01T11:20:58.078Z,99.90
2018-12-01T11:23:27.098Z,99.90
2018-12-01T11:25:56.047Z,99.90
2018-12-01T11:28:25.483Z,99.90
2018-12-01T11:30:54.474Z,99.90
2018-12-01T11:33:23.900Z,99.90
2018-12-01T11:35:52.953Z,99.90
2018-12-01T11:38:21.933Z,99.90
2018-12-01T11:40:50.966Z,99.90
2018-12-01T11:43:20.499Z,99.90
2018-12-01T11:45:49.578Z,99.90
2018-12-01T11:48:18.620Z,99.90
2018-12-01T11:50:48.647Z,99.90
2018-12-01T11:53:17.777Z,99.90
2018-12-01T11:55:46.843Z,99.90
2018-12-01T11:58:15.797Z,99.90
2018-12-01T12:00:45.094Z,99.90
2018-12-01T12:03:14.049Z,99.90
2018-12-01T12:05:43.558Z,99.90
2018-12-01T12:08:21.211Z,99.90
2018-12-01T12:10:50.583Z,99.90
2018-12-01T12:13:20.174Z,99.90
2018-12-01T12:15:49.326Z,99.90
2018-12-01T12:18:18.339Z,99.90
2018-12-01T12:20:47.501Z,99.90
2018-12-01T12:23:16.878Z,99.90
2018-12-01T12:25:45.582Z,99.90
2018-12-01T12:28:15.976Z,99.90
2018-12-01T12:30:45.891Z,99.90
2018-12-01T12:33:14.829Z,99.90
2018-12-01T12:35:43.880Z,99.90
2018-12-01T12:38:19.400Z,99.90
2018-12-01T12:40:49.289Z,99.90
2018-12-01T12:43:20.278Z,99.90
2018-12-01T12:45:49.444Z,99.90
2018-12-01T12:48:18.656Z,99.90
2018-12-01T12:50:52.987Z,99.90
2018-12-01T12:53:16.626Z,99.90
2018-12-01T12:55:45.597Z,99.90
2018-12-01T12:58:14.581Z,99.90
2018-12-01T13:00:43.636Z,99.90
2018-12-01T13:03:13.086Z,99.90
2018-12-01T13:05:46.003Z,99.90
2018-12-01T13:08:17.295Z,99.90
2018-12-01T13:10:47.474Z,99.90
2018-12-01T13:13:16.427Z,99.90
2018-12-01T13:15:45.374Z,99.90
2018-12-01T13:18:15.003Z,99.90
2018-12-01T13:20:46.119Z,99.90
2018-12-01T13:23:15.242Z,99.90
2018-12-01T13:25:44.393Z,99.90
2018-12-01T13:28:16.928Z,99.90
2018-12-01T13:30:51.300Z,99.90
2018-12-01T13:33:20.313Z,99.90
2018-12-01T13:35:49.315Z,99.90
2018-12-01T13:38:18.381Z,99.90
2018-12-01T13:40:47.411Z,99.90
2018-12-01T13:43:16.542Z,99.90
2018-12-01T13:45:45.469Z,99.90
2018-12-01T13:48:14.493Z,99.90
2018-12-01T13:50:44.063Z,99.90
2018-12-01T13:53:14.592Z,99.90
2018-12-01T13:55:43.553Z,99.90
2018-12-01T13:58:12.464Z,99.90
2018-12-01T14:00:42.161Z,99.90
2018-12-01T14:03:11.273Z,99.90
2018-12-01T14:05:41.520Z,99.90
2018-12-01T14:08:10.506Z,99.90
2018-12-01T14:10:43.435Z,99.90
2018-12-01T14:13:13.790Z,99.90
2018-12-01T14:15:42.890Z,99.90
2018-12-01T14:18:12.794Z,99.90
2018-12-01T14:20:41.824Z,99.90
2018-12-01T14:23:10.747Z,99.90
2018-12-01T14:25:39.701Z,99.90
2018-12-01T14:28:09.962Z,99.90
2018-12-01T14:30:39.595Z,99.90
2018-12-01T14:33:10.301Z,99.90
2018-12-01T14:35:39.452Z,99.90
2018-12-01T14:38:10.543Z,99.90
2018-12-01T14:40:41.611Z,99.90
2018-12-01T14:43:10.613Z,99.90
2018-12-01T14:46:05.773Z,99.90
2018-12-01T14:48:35.711Z,99.90
2018-12-01T14:51:12.651Z,99.90
2018-12-01T14:53:41.666Z,99.90
2018-12-01T14:56:11.063Z,99.90
2018-12-01T14:58:42.433Z,99.90
2018-12-01T15:01:09.184Z,99.90
2018-12-01T15:03:38.699Z,99.90
2018-12-01T15:06:07.702Z,99.90
2018-12-01T15:08:36.682Z,99.90
2018-12-01T15:11:06.283Z,99.90
2018-12-01T15:13:35.233Z,99.90
2018-12-01T15:16:04.364Z,99.90
2018-12-01T15:18:33.284Z,99.90
2018-12-01T15:21:02.279Z,99.90
2018-12-01T15:23:32.537Z,99.90
2018-12-01T15:26:01.473Z,99.90
2018-12-01T15:28:30.449Z,99.90
2018-12-01T15:30:59.578Z,99.90
2018-12-01T15:33:28.622Z,99.90
2018-12-01T15:35:57.618Z,99.90
2018-12-01T15:38:26.638Z,99.90
2018-12-01T15:40:55.607Z,99.90
2018-12-01T15:43:24.561Z,99.90
2018-12-01T15:45:53.610Z,99.90
2018-12-01T15:48:22.599Z,99.90
2018-12-01T15:50:51.669Z,99.90
2018-12-01T15:53:20.654Z,99.90
2018-12-01T15:55:49.583Z,99.90
2018-12-01T15:58:19.071Z,99.90
2018-12-01T16:00:48.168Z,99.90
2018-12-01T16:03:17.061Z,99.90
2018-12-01T16:05:46.664Z,99.90
2018-12-01T16:08:16.242Z,99.90
2018-12-01T16:10:45.341Z,99.90
2018-12-01T16:13:18.601Z,99.90
2018-12-01T16:15:51.179Z,99.90
2018-12-01T16:18:20.511Z,99.90
2018-12-01T16:20:49.493Z,99.90
2018-12-01T16:23:18.454Z,99.90
2018-12-01T16:25:47.743Z,99.90
2018-12-01T16:28:16.840Z,99.90
2018-12-01T16:30:46.445Z,99.90
2018-12-01T16:33:18.860Z,99.90
2018-12-01T16:35:47.663Z,99.90
2018-12-01T16:38:19.540Z,99.90
2018-12-01T16:40:52.084Z,99.90
2018-12-01T16:43:21.352Z,99.90
2018-12-01T16:45:52.422Z,99.90
2018-12-01T16:48:21.855Z,99.90
2018-12-01T16:50:50.957Z,99.90
2018-12-01T16:53:21.273Z,99.90
2018-12-01T16:55:50.370Z,99.90
2018-12-01T16:58:19.535Z,99.90
2018-12-01T17:00:48.505Z,99.90
2018-12-01T17:03:17.441Z,99.90
2018-12-01T17:05:49.670Z,99.90
2018-12-01T17:08:18.577Z,99.90
2018-12-01T17:10:47.709Z,99.90
2018-12-01T17:13:18.159Z,99.90
2018-12-01T17:15:47.202Z,99.90
2018-12-01T17:18:16.722Z,99.90
2018-12-01T17:20:45.782Z,99.90
2018-12-01T17:23:16.011Z,99.90
2018-12-01T17:25:45.098Z,99.90
2018-12-01T17:28:18.165Z,99.90
2018-12-01T17:30:47.442Z,99.90
2018-12-01T17:33:16.963Z,99.90
2018-12-01T17:35:45.996Z,99.90
2018-12-01T17:38:20.154Z,99.90
2018-12-01T17:41:01.626Z,99.90
2018-12-01T17:43:34.225Z,99.90
2018-12-01T17:46:04.120Z,99.90
2018-12-01T17:48:33.133Z,99.90
2018-12-01T17:51:02.190Z,99.90
2018-12-01T17:53:31.151Z,99.90
2018-12-01T17:56:00.948Z,99.90
2018-12-01T17:58:30.041Z,99.90
2018-12-01T18:00:59.003Z,99.90
2018-12-01T18:03:27.973Z,99.90
2018-12-01T18:05:57.086Z,99.90
2018-12-01T18:08:26.681Z,99.90
2018-12-01T18:10:56.036Z,99.90
2018-12-01T18:13:25.457Z,99.90
2018-12-01T18:15:54.536Z,99.90
2018-12-01T18:18:23.441Z,99.90
2018-12-01T18:20:53.031Z,99.90
2018-12-01T18:23:22.666Z,99.90
2018-12-01T18:25:54.323Z,99.90
2018-12-01T18:28:26.519Z,99.90
2018-12-01T18:30:56.180Z,99.90
2018-12-01T18:33:37.850Z,99.90
2018-12-01T18:36:08.492Z,99.90
2018-12-01T18:38:37.573Z,99.90
2018-12-01T18:41:10.260Z,99.90
2018-12-01T18:43:39.219Z,99.90
2018-12-01T18:46:18.569Z,99.90
2018-12-01T18:48:47.653Z,99.90
2018-12-01T18:51:16.657Z,99.90
2018-12-01T18:53:45.772Z,99.90
2018-12-01T18:56:14.771Z,99.90
2018-12-01T18:58:43.855Z,99.90
2018-12-01T19:01:13.030Z,99.90
2018-12-01T19:03:42.361Z,99.90
2018-12-01T19:06:11.823Z,99.90
2018-12-01T19:08:41.580Z,99.90
2018-12-01T19:11:11.362Z,99.90
2018-12-01T19:13:40.413Z,99.90
2018-12-01T19:16:09.581Z,99.90
2018-12-01T19:18:38.522Z,99.90
2018-12-01T19:21:07.642Z,99.90
2018-12-01T19:23:36.621Z,99.90
2018-12-01T19:26:06.156Z,99.90
2018-12-01T19:28:35.198Z,99.90
2018-12-01T19:31:04.202Z,99.90
2018-12-01T19:33:33.487Z,99.90
2018-12-01T19:36:02.859Z,99.90
2018-12-01T19:38:31.886Z,99.90
2018-12-01T19:41:01.589Z,99.90
2018-12-01T19:43:30.619Z,99.90
2018-12-01T19:45:59.963Z,99.90
2018-12-01T19:48:28.878Z,99.90
2018-12-01T19:50:57.961Z,99.90
2018-12-01T19:53:27.320Z,99.90
2018-12-01T19:55:56.441Z,99.90
2018-12-01T19:58:26.926Z,99.90
2018-12-01T20:01:00.617Z,99.90
2018-12-01T20:03:31.308Z,99.90
2018-12-01T20:06:00.682Z,99.90
2018-12-01T20:08:29.719Z,99.90
2018-12-01T20:11:01.709Z,99.90
2018-12-01T20:13:35.024Z,99.90
2018-12-01T20:16:38.672Z,99.90
2018-12-01T20:19:08.561Z,99.90
2018-12-01T20:21:37.565Z,99.90
2018-12-01T20:24:08.019Z,99.90
2018-12-01T20:26:38.007Z,99.90
2018-12-01T20:29:08.652Z,99.90
2018-12-01T20:31:38.960Z,99.90
2018-12-01T20:34:10.153Z,99.90
2018-12-01T20:36:54.888Z,99.90
2018-12-01T20:39:30.609Z,99.90
2018-12-01T20:42:00.244Z,99.90
2018-12-01T20:44:29.653Z,99.90
2018-12-01T20:46:58.757Z,99.90
2018-12-01T20:49:28.566Z,99.90
2018-12-01T20:51:57.582Z,99.90
2018-12-01T20:54:37.286Z,99.90
2018-12-01T20:57:25.302Z,99.90
2018-12-01T20:59:54.870Z,99.90
2018-12-01T21:02:24.954Z,99.90
2018-12-01T21:04:54.061Z,99.90
2018-12-01T21:07:23.944Z,99.90
2018-12-01T21:09:55.412Z,99.90
2018-12-01T21:12:25.510Z,99.90
2018-12-01T21:14:58.239Z,99.90
2018-12-01T21:17:27.383Z,99.90
2018-12-01T21:19:56.489Z,99.90
2018-12-01T21:22:25.646Z,99.90
2018-12-01T21:24:54.692Z,99.90
2018-12-01T21:27:24.502Z,99.90
2018-12-01T21:29:54.466Z,99.90
2018-12-01T21:32:24.214Z,99.90
2018-12-01T21:34:53.760Z,99.90
2018-12-01T21:37:24.123Z,99.90
2018-12-01T21:39:53.236Z,99.90
2018-12-01T21:42:24.873Z,99.90
2018-12-01T21:44:53.914Z,99.90
2018-12-01T21:47:22.902Z,99.90
2018-12-01T21:49:52.118Z,99.90
2018-12-01T21:52:21.155Z,99.90
2018-12-01T21:54:51.585Z,99.90
2018-12-01T21:57:20.988Z,99.90
2018-12-01T21:59:49.953Z,99.90
2018-12-01T22:02:19.548Z,99.90
2018-12-01T22:04:48.592Z,99.90
2018-12-01T22:07:17.505Z,99.90
2018-12-01T22:09:46.968Z,99.90
2018-12-01T22:12:16.120Z,99.90
2018-12-01T22:14:45.154Z,99.90
2018-12-01T22:17:14.387Z,99.90
2018-12-01T22:19:43.622Z,99.90
2018-12-01T22:22:12.765Z,99.90
2018-12-01T22:24:42.252Z,99.90
2018-12-01T22:27:11.338Z,99.90
2018-12-01T22:29:40.432Z,99.90
2018-12-01T22:32:09.545Z,99.90
2018-12-01T22:34:38.590Z,99.90
2018-12-01T22:37:08.458Z,99.90
2018-12-01T22:39:37.562Z,99.90
2018-12-01T22:42:07.388Z,99.90
2018-12-01T22:44:36.829Z,99.90
2018-12-01T22:47:06.239Z,99.90
2018-12-01T22:49:35.378Z,99.90
2018-12-01T22:52:04.598Z,99.90
2018-12-01T22:54:33.529Z,99.90
2018-12-01T22:57:02.858Z,99.90
2018-12-01T22:59:31.880Z,99.90
2018-12-01T23:02:00.992Z,99.90
2018-12-01T23:04:30.081Z,99.90
2018-12-01T23:06:59.121Z,99.90
2018-12-01T23:09:28.367Z,99.90
2018-12-01T23:11:57.372Z,99.90
2018-12-01T23:14:26.293Z,99.90
2018-12-01T23:16:55.284Z,99.90
2018-12-01T23:19:24.918Z,99.90
2018-12-01T23:21:53.845Z,99.90
2018-12-01T23:24:22.791Z,99.90
2018-12-01T23:26:51.776Z,99.90
2018-12-01T23:29:20.759Z,99.90
2018-12-01T23:31:49.675Z,99.90
2018-12-01T23:34:18.786Z,99.90
2018-12-01T23:36:47.701Z,99.90
2018-12-01T23:39:16.640Z,99.90
2018-12-01T23:41:45.642Z,99.90
2018-12-01T23:44:20.421Z,99.90
2018-12-01T23:46:49.433Z,99.90
2018-12-01T23:49:18.394Z,99.90
2018-12-01T23:51:47.337Z,99.90
2018-12-01T23:54:16.332Z,99.90
2018-12-01T23:56:45.248Z,99.90
2018-12-01T23:59:14.163Z,99.90
